This is the latest recevied weather packets stored in our database for station/object KE0FIN. If no packets are shown the sender has not sent any weather packets the latest 10 day(s).
| Time | Temp. | Humidity | Pressure | Rain* | Wind** | Luminosity | Snow |
|---|---|---|---|---|---|---|---|
| 1777508109 | 15.56° C | 52% | 1068.7 hPa | 0 mm | - | 36 W/m² | - |
| 1777507806 | 16.11° C | 51% | 1068.8 hPa | 0 mm | - | 34 W/m² | - |
| 1777507503 | 16.67° C | 51% | 1068.9 hPa | 0 mm | - | 41 W/m² | - |
| 1777507200 | 16.67° C | 50% | 1068.7 hPa | 0 mm | - | 72 W/m² | - |
| 1777506898 | 16.67° C | 50% | 1068.8 hPa | 0 mm | - | 126 W/m² | - |
| 1777506595 | 16.67° C | 51% | 1069 hPa | 0 mm | - | 63 W/m² | - |
| 1777506290 | 17.22° C | 48% | 1068.8 hPa | 0 mm | - | 67 W/m² | - |
| 1777505987 | 17.78° C | 47% | 1069 hPa | 0 mm | - | 75 W/m² | - |
| 1777505682 | 17.78° C | 46% | 1069 hPa | 0 mm | - | 105 W/m² | - |
| 1777505380 | 16.67° C | 49% | 1068.9 hPa | 0 mm | - | 197 W/m² | - |
| 1777505076 | 16.67° C | 48% | 1068.8 hPa | 0 mm | - | 74 W/m² | - |
| 1777504773 | 16.67° C | 48% | 1068.9 hPa | 0 mm | - | 81 W/m² | - |
| 1777504470 | 16.67° C | 48% | 1068.9 hPa | 0 mm | - | 82 W/m² | - |
| 1777504166 | 16.67° C | 46% | 1069.2 hPa | 0 mm | - | 86 W/m² | - |
| 1777503862 | 17.22° C | 46% | 1069.2 hPa | 0 mm | - | 108 W/m² | - |
| 1777503558 | 17.22° C | 46% | 1068.9 hPa | 0 mm | - | 120 W/m² | - |
| 1777503255 | 17.78° C | 42% | 1068.9 hPa | 0 mm | - | 113 W/m² | - |
| 1777502952 | 18.33° C | 40% | 1068.7 hPa | 0 mm | - | 141 W/m² | - |
| 1777502649 | 18.33° C | 41% | 1068.8 hPa | 0 mm | - | 310 W/m² | - |
| 1777502346 | 18.33° C | 42% | 1068.7 hPa | 0 mm | - | 222 W/m² | - |
| 1777502042 | 17.22° C | 44% | 1068.7 hPa | 0 mm | - | 361 W/m² | - |
| 1777501739 | 17.78° C | 44% | 1068.8 hPa | 0 mm | - | 157 W/m² | - |
| 1777501437 | 17.22° C | 46% | 1068.8 hPa | 0 mm | - | 146 W/m² | - |
| 1777501134 | 17.78° C | 44% | 1068.8 hPa | 0 mm | - | 171 W/m² | - |
| 1777500833 | 17.78° C | 43% | 1068.8 hPa | 0 mm | - | 217 W/m² | - |
* Rain latest hour (hover to see other rain measurements)
** Current wind speed in m/s (hover to see current wind gust speed)